DONNÉES MÉTÉO

HIER
Time Temp. Dewp. Hum. Directi La vitess Wind gust Bar. 1h Prec. 24h Prec.
00:06 5.1 4.5 96 0 0 1037.2 0.0000 0.0000
00:16 5.1 4.5 96 0 0 1037.1 0.0000 0.0000
00:26 5.2 4.6 96 0 0 1037 0.0000 0.0000
00:36 5.2 4.6 96 0 0 1036.9 0.0000 0.0000
00:47 5.2 4.6 96 0 0 1036.9 0.0000 0.0000
00:56 5.2 4.6 96 0 0 1036.8 0.0000 0.0000
01:06 5.2 4.5 95 0 0 1036.8 0.0000 0.0000
01:17 5.2 4.6 96 0 0 1036.7 0.0000 0.0000
01:32 5.2 4.5 95 0 0 1036.5 0.0000 0.0000
01:41 5.2 4.5 95 0 0 1036.4 0.0000 0.0000
01:57 5.2 4.6 96 0 0 1036.3 0.0000 0.0000
02:07 5.3 4.7 96 0 0 1036.2 0.0000 0.0000
02:17 5.3 4.6 95 0 0 1036.1 0.0000 0.0000
02:27 5.3 4.6 95 0 0 1036 0.0000 0.0000
02:37 5.4 4.8 96 0 0 1036 0.0000 0.0000
02:47 5.4 4.7 95 0 0 1035.9 0.0000 0.0000
02:57 5.4 4.7 95 0 0 1035.9 0.0000 0.0000
03:08 5.4 4.7 95 0 0 1035.7 0.0000 0.0000
03:18 5.4 4.7 95 0 0 1035.6 0.0000 0.0000
03:27 5.3 4.6 95 0 0 1035.5 0.0000 0.0000
03:37 5.3 4.6 95 0 0 1035.4 0.0000 0.0000
03:48 5.3 4.6 95 0 0 1035.3 0.0000 0.0000
03:58 5.2 4.5 95 0 0 1035.2 0.0000 0.0000
04:08 5.1 4.4 95 0 0 1035 0.0000 0.0000
04:18 5.1 4.4 95 0 0 1034.9 0.0000 0.0000
04:28 5.1 4.4 95 0 0 1034.9 0.0000 0.0000
04:38 5.1 4.4 95 0 0 1034.8 0.0000 0.0000
04:48 5.1 4.4 95 0 0 1034.7 0.0000 0.0000
04:59 5.1 4.5 96 0 0 1034.6 0.0000 0.0000
05:08 5.1 4.5 96 0 0 1034.4 0.0000 0.0000
05:23 5.2 4.6 96 0 0 1034.3 0.0000 0.0000
05:34 5.2 4.5 95 0 0 1034.2 0.0000 0.0000
05:49 5.1 4.5 96 0 0 1034.2 0.0000 0.0000
05:58 5.1 4.5 96 0 0 1034.1 0.0000 0.0000
06:09 5.2 4.6 96 0 0 1034 0.0000 0.0000
06:19 5.2 4.6 96 0 0 1034 0.0000 0.0000
06:29 5.2 4.6 96 0 0 1033.9 0.0000 0.0000
06:39 5.2 4.6 96 0 0 1033.8 0.0000 0.0000
06:49 5.2 4.6 96 0 0 1033.7 0.0000 0.0000
07:04 5.2 4.6 96 0 0 1033.8 0.0000 0.0000
07:15 5.2 4.6 96 0 0 1033.8 0.0000 0.0000
07:34 5.2 4.6 96 0 0 1033.8 0.0000 0.0000
07:44 5.2 4.6 96 0 0 1033.7 0.0000 0.0000
08:05 5.2 4.6 96 0 0 1033.7 0.0000 0.0000
08:15 5.2 4.6 96 0 0 1033.6 0.0000 0.0000
08:25 5.2 4.6 96 0 0 1033.7 0.0000 0.0000
08:35 5.2 4.6 96 0 0 1033.7 0.0000 0.0000
08:50 5.2 4.6 96 0 0 1033.5 0.0000 0.0000
09:00 5.2 4.6 96 0 0 1033.6 0.0000 0.0000
09:11 5.2 4.6 96 0 0 1033.6 0.0000 0.0000
09:20 5.2 4.6 96 0 0 1033.7 0.0000 0.0000
09:30 5.2 4.5 95 0 0 1033.6 0.0000 0.0000
09:41 5.3 4.6 95 0 0 1033.5 0.0000 0.0000
09:51 5.3 4.6 95 0 0 1033.5 0.0000 0.0000
10:01 5.4 4.7 95 0 0 1033.4 0.0000 0.0000
10:11 5.5 4.8 95 0 0 1033.4 0.0000 0.0000
10:26 5.6 4.9 95 0 0 1033.3 0.0000 0.0000
10:41 5.9 5 94 0 0 1033.3 0.0000 0.0000
10:52 6.1 5.2 94 0 0 1033.2 0.0000 0.0000
11:02 6.4 5.4 93 0 0 1033.2 0.0000 0.0000
11:11 6.6 5.2 91 0 0 1033.2 0.0000 0.0000
11:21 6.9 5.5 91 0 0 1033.1 0.0000 0.0000
11:32 7.2 5.3 88 0 0 1032.9 0.0000 0.0000
11:42 7.7 5.7 87 0 0 1032.8 0.0000 0.0000
11:52 7.8 5.6 86 0 0 1032.6 0.0000 0.0000
12:02 8.1 5.6 84 0 0 1032.5 0.0000 0.0000
12:12 8.2 5.1 81 0 0 1032.4 0.0000 0.0000
12:22 8.2 5 80 0 0 1032.3 0.0000 0.0000
12:32 8 4.6 79 0 0 1032.3 0.0000 0.0000
12:43 7.9 4.7 80 0 0 1032.1 0.0000 0.0000
12:52 7.7 4.5 80 0 0 1032 0.0000 0.0000
13:02 7.5 4.3 80 0 0 1031.9 0.0000 0.0000
13:12 7.2 4.2 81 0 0 1031.7 0.0000 0.0000
13:23 7 4 81 0 0 1031.6 0.0000 0.0000
13:33 7 4.1 82 0 0 1031.4 0.0000 0.0000
13:42 6.9 4 82 0 0 1031.3 0.0000 0.0000
13:53 6.9 3.9 81 0 0 1031.2 0.0000 0.0000
14:03 6.8 3.8 81 0 0 1031 0.0000 0.0000
14:13 6.8 3.9 82 0 0 1030.9 0.0000 0.0000
14:23 6.8 3.9 82 0 0 1030.7 0.0000 0.0000
14:34 6.8 3.6 80 0 0 1030.6 0.0000 0.0000
14:43 6.7 3.5 80 0 0 1030.3 0.0000 0.0000
14:53 6.6 3.4 80 0 0 1030.2 0.0000 0.0000
15:04 6.5 3.3 80 0 0 1030.1 0.0000 0.0000
15:24 6.4 3.2 80 0 0 1029.7 0.0000 0.0000
15:34 6.2 3.2 81 0 0 1029.7 0.0000 0.0000
15:44 6 3.2 82 0 0 1029.7 0.0000 0.0000
15:54 5.9 3.1 82 0 0 1029.6 0.0000 0.0000
16:04 5.7 3 83 0 0 1029.5 0.0000 0.0000
16:15 5.7 3 83 0 0 1029.4 0.0000 0.0000
16:24 5.5 2.8 83 0 0 1029.2 0.0000 0.0000
16:34 5.5 3 84 0 0 1029.2 0.0000 0.0000
16:55 5.4 2.9 84 0 0 1029 0.0000 0.0000
17:05 5.3 2.8 84 0 0 1029 0.0000 0.0000
17:25 5.2 2.9 85 0 0 1028.8 0.0000 0.0000
17:35 5.1 2.8 85 0 0 1028.6 0.0000 0.0000
17:45 5 2.9 86 0 0 1028.5 0.0000 0.0000
17:55 5 2.9 86 0 0 1028.4 0.0000 0.0000
18:15 4.9 2.9 87 0 0 1028.4 0.0000 0.0000
18:25 4.9 2.9 87 0 0 1028.3 0.0000 0.0000
18:46 4.9 3.1 88 0 0 1028.1 0.0000 0.0000
18:55 4.8 3 88 0 0 1028 0.0000 0.0000
19:05 4.8 3 88 0 0 1028 0.0000 0.0000
19:16 4.7 2.9 88 0 0 1028 0.0000 0.0000
19:26 4.6 2.8 88 0 0 1028 0.0000 0.0000
19:36 4.6 2.9 89 0 0 1028 0.0000 0.0000
19:46 4.5 2.8 89 0 0 1027.9 0.0000 0.0000
19:56 4.4 2.7 89 0 0 1027.9 0.0000 0.0000
20:06 4.3 2.7 89 0 0 1027.9 0.0000 0.0000
20:16 4.2 2.7 90 0 0 1027.8 0.0000 0.0000
20:27 4.1 2.6 90 0 0 1027.8 0.0000 0.0000
20:36 4 2.5 90 0 0 1027.7 0.0000 0.0000
20:51 4 2.7 91 0 0 1027.7 0.0000 0.0000
21:02 3.9 2.6 91 0 0 1027.7 0.0000 0.0000
21:12 3.8 2.6 92 0 0 1027.7 0.0000 0.0000
21:21 3.7 2.5 92 0 0 1027.7 0.0000 0.0000
21:32 3.6 2.4 92 0 0 1027.6 0.0000 0.0000
21:42 3.6 2.4 92 0 0 1027.4 0.0000 0.0000
21:52 3.6 2.6 93 0 0 1027.4 0.0000 0.0000
22:12 3.6 2.6 93 0 0 1027.4 0.0000 0.0000
22:22 3.4 2.4 93 0 0 1027.3 0.0000 0.0000
22:32 3.3 2.3 93 0 0 1027.3 0.0000 0.0000
22:42 3.3 2.4 94 0 0 1027.3 0.0000 0.0000
22:53 3.3 2.4 94 0 0 1027.3 0.0000 0.0000
23:02 3.3 2.4 94 0 0 1027.2 0.0000 0.0000
23:18 3.3 2.4 94 0 0 1027.1 0.0000 0.0000
23:28 3.3 2.4 94 0 0 1027.2 0.0000 0.0000
23:38 3.3 2.4 94 0 0 1027.1 0.0000 0.0000
23:48 3.3 2.4 94 0 0 1027.1 0.0000 0.0000
23:58 3.3 2.6 95 0 0 1027 0.0000

SATISTIQUES DU JOUR

2020-01-23
TEMPÉRATURE
MOYEN
5.3
MAXI
8.2
12:12
MINI
3.3
22:32
PRESSION
MOYEN
1031.9
MAXI
1037.2
00:06
MINI
1027.0
23:58
POINT DE ROSÉE
MOYEN
3.9
MAXI
5.7
11:42
MINI
2.3
22:32
HUMIDITÉ
MOYEN
91
MAXI
96
00:06
MINI
79
12:32
LA VITESSE DU VENT
MOYEN
0.0
MAXI
0.0
07:29
WIND GUST
MOYEN
0.0
MAXI
0.0
07:29
DIRECTION DU VENT
PREVAILING
%
PRÉCIPITATIONS
RAIN HOUR
0.0
RAIN DAY
0.0
TEMPÉRATURE (°C)
MINI
3.3
MAXI
8.2
MOYEN
5.3
PRESSION (hpa)
MINI
1027.0
MAXI
1037.2
MOYEN
1031.9
DEVICE